Time;durP1;ratioP1;P1;durP2;ratioP2;P2;SDS_P1;SDS_P2;PMS_P1;PMS_P2;Temp;Humidity;BMP_temperature;BMP_pressure;BME280_temperature;BME280_humidity;BME280_pressure;Samples;Min_cycle;Max_cycle;Signal;HPM_P1;HPM_P2
2022/05/21 00:02:11;;;;;;;5.90;3.80;;;24.50;30.30;;;;;;10433506;28;20235;-74
2022/05/21 00:07:16;;;;;;;4.47;3.50;;;24.50;30.70;;;;;;10432770;28;20701;-73
2022/05/21 00:12:19;;;;;;;4.83;3.37;;;24.30;31.90;;;;;;10432294;28;20220;-73
2022/05/21 00:17:22;;;;;;;4.17;3.60;;;24.30;31.20;;;;;;10434727;28;23155;-74
2022/05/21 00:22:27;;;;;;;3.57;2.97;;;24.00;31.60;;;;;;10432657;28;20217;-73
2022/05/21 00:27:30;;;;;;;4.10;3.33;;;23.80;32.90;;;;;;10433728;28;20750;-74
2022/05/21 00:32:34;;;;;;;6.63;3.33;;;23.60;32.50;;;;;;10428690;28;20232;-73
2022/05/21 00:37:39;;;;;;;4.00;3.17;;;23.60;33.00;;;;;;10431097;28;20260;-74
2022/05/21 00:42:43;;;;;;;4.83;3.17;;;23.60;33.90;;;;;;10431250;28;20225;-74
2022/05/21 00:47:47;;;;;;;5.87;3.27;;;23.60;33.60;;;;;;10430616;28;20609;-74
2022/05/21 00:52:53;;;;;;;5.23;3.10;;;23.50;33.40;;;;;;10430492;28;20226;-74
2022/05/21 01:03:30;;;;;;;4.73;3.83;;;23.40;35.50;;;;;;10431246;28;20240;-74
2022/05/21 01:08:34;;;;;;;3.80;3.50;;;23.30;35.90;;;;;;10429537;28;20721;-74
2022/05/21 01:13:39;;;;;;;4.00;3.67;;;23.30;35.30;;;;;;10431608;28;20228;-74
2022/05/21 01:18:42;;;;;;;4.93;3.77;;;23.30;34.80;;;;;;10430489;28;20241;-74
2022/05/21 01:23:47;;;;;;;5.60;4.03;;;23.30;34.70;;;;;;10434008;28;20251;-73
2022/05/21 01:28:52;;;;;;;4.80;4.20;;;23.20;35.70;;;;;;10427742;28;20781;-74
2022/05/21 01:33:55;;;;;;;6.70;4.20;;;23.20;34.90;;;;;;10430099;28;20225;-73
2022/05/21 01:39:00;;;;;;;4.63;4.10;;;23.10;35.10;;;;;;10428061;28;20236;-73
2022/05/21 01:49:26;;;;;;;4.63;4.17;;;22.90;35.50;;;;;;10411892;28;20228;-73
2022/05/21 01:54:31;;;;;;;5.90;4.47;;;22.80;35.80;;;;;;10426800;28;20236;-73
2022/05/21 01:59:34;;;;;;;4.70;4.30;;;22.80;36.70;;;;;;10429989;28;20235;-74
2022/05/21 02:04:38;;;;;;;5.00;4.50;;;22.80;35.80;;;;;;10427280;28;20233;-74
2022/05/21 02:09:42;;;;;;;4.40;3.93;;;22.70;35.60;;;;;;10429999;28;20224;-73
2022/05/21 02:14:45;;;;;;;4.63;4.10;;;22.80;36.10;;;;;;10429068;28;20236;-74
2022/05/21 02:19:49;;;;;;;4.40;4.00;;;22.70;36.20;;;;;;10431165;28;20228;-73
2022/05/21 02:24:53;;;;;;;5.43;3.63;;;22.60;35.30;;;;;;10426210;28;20229;-74
2022/05/21 02:29:56;;;;;;;4.00;3.70;;;22.60;35.80;;;;;;10429178;28;20225;-73
2022/05/21 02:34:59;;;;;;;4.70;4.03;;;22.50;35.20;;;;;;10426917;28;20240;-74
2022/05/21 02:40:06;;;;;;;4.47;3.93;;;22.50;35.40;;;;;;10428210;28;20221;-73
2022/05/21 02:45:12;;;;;;;4.80;4.33;;;22.50;36.30;;;;;;10429805;28;20260;-73
2022/05/21 02:50:21;;;;;;;3.97;3.60;;;22.40;35.90;;;;;;10428362;28;20228;-73
2022/05/21 02:55:26;;;;;;;4.30;3.90;;;22.30;36.50;;;;;;10428242;28;20637;-73
2022/05/21 03:00:32;;;;;;;4.90;3.47;;;22.20;36.00;;;;;;10439922;28;20247;-73
2022/05/21 03:05:35;;;;;;;3.87;3.50;;;22.20;36.10;;;;;;10430650;28;20599;-73
2022/05/21 03:10:40;;;;;;;4.37;3.83;;;22.10;35.60;;;;;;10431868;28;20744;-73
2022/05/21 03:15:43;;;;;;;4.07;3.70;;;22.10;36.40;;;;;;10434933;28;20236;-73
2022/05/21 03:20:47;;;;;;;4.67;3.70;;;22.00;35.80;;;;;;10435332;28;20275;-73
2022/05/21 03:25:52;;;;;;;5.13;3.33;;;21.90;35.90;;;;;;10435351;28;20233;-73
2022/05/21 03:30:55;;;;;;;3.50;3.30;;;21.90;36.60;;;;;;10437093;28;20228;-73
2022/05/21 03:35:58;;;;;;;4.47;3.20;;;21.80;36.50;;;;;;10436693;28;20232;-74
2022/05/21 03:41:03;;;;;;;4.30;3.20;;;21.70;35.80;;;;;;10434879;28;20220;-73
2022/05/21 03:46:06;;;;;;;3.37;3.07;;;21.50;36.30;;;;;;10428518;28;21097;-74
2022/05/21 03:51:10;;;;;;;4.37;3.00;;;21.40;36.10;;;;;;10437750;28;20236;-73
2022/05/21 03:56:14;;;;;;;3.97;2.80;;;21.30;36.00;;;;;;10432277;28;20878;-73
2022/05/21 04:01:17;;;;;;;3.03;2.83;;;21.20;36.50;;;;;;10432419;28;20312;-73
2022/05/21 04:06:21;;;;;;;3.77;2.77;;;21.20;36.00;;;;;;10428154;28;20232;-73
2022/05/21 04:11:25;;;;;;;3.00;2.80;;;21.10;36.00;;;;;;10431859;28;20224;-74
2022/05/21 04:16:29;;;;;;;7.93;2.93;;;21.00;36.50;;;;;;10428088;28;20788;-73
2022/05/21 04:21:32;;;;;;;2.80;2.60;;;20.90;35.80;;;;;;10432628;28;20239;-73
2022/05/21 04:26:36;;;;;;;2.90;2.70;;;20.90;35.90;;;;;;10432550;28;20253;-73
2022/05/21 04:31:40;;;;;;;4.27;2.87;;;20.80;36.30;;;;;;10431167;28;20236;-73
2022/05/21 04:36:43;;;;;;;2.80;2.60;;;20.80;36.00;;;;;;10429589;28;20224;-73
2022/05/21 04:41:49;;;;;;;2.90;2.70;;;20.70;35.90;;;;;;10429043;28;20408;-73
2022/05/21 04:46:52;;;;;;;2.83;2.63;;;20.70;37.00;;;;;;10430834;28;20251;-73
2022/05/21 04:51:56;;;;;;;3.93;3.10;;;20.70;36.10;;;;;;10428949;28;20619;-73
2022/05/21 04:57:00;;;;;;;2.90;2.20;;;20.70;36.30;;;;;;10431691;28;20240;-74
2022/05/21 05:02:05;;;;;;;3.17;2.87;;;20.60;36.90;;;;;;10432236;28;20240;-73
2022/05/21 05:07:09;;;;;;;3.10;2.80;;;20.60;36.40;;;;;;10430895;28;20225;-74
2022/05/21 05:12:16;;;;;;;5.40;3.00;;;20.60;36.50;;;;;;10427179;28;20745;-73
2022/05/21 05:17:20;;;;;;;3.30;3.00;;;20.60;36.50;;;;;;10431267;28;20985;-74
2022/05/21 05:22:23;;;;;;;3.23;2.73;;;20.60;35.80;;;;;;10428365;28;20232;-73
2022/05/21 05:27:28;;;;;;;3.13;2.50;;;20.50;35.50;;;;;;10426332;28;20780;-74
2022/05/21 05:32:32;;;;;;;2.33;2.20;;;20.30;35.80;;;;;;10428017;28;20247;-74
2022/05/21 05:37:36;;;;;;;3.23;2.30;;;20.20;35.60;;;;;;10427393;28;20229;-73
2022/05/21 05:42:41;;;;;;;2.50;2.30;;;20.10;35.60;;;;;;10428850;28;20225;-73
2022/05/21 05:47:44;;;;;;;3.10;2.40;;;20.00;36.00;;;;;;10425871;28;20355;-73
2022/05/21 05:52:47;;;;;;;2.60;2.40;;;20.00;35.70;;;;;;10428488;28;20240;-73
2022/05/21 05:57:53;;;;;;;4.20;2.43;;;19.90;35.60;;;;;;10423525;28;20229;-73
2022/05/21 06:02:59;;;;;;;2.57;2.37;;;19.70;35.90;;;;;;10426898;28;21024;-73
2022/05/21 06:08:05;;;;;;;3.23;2.60;;;19.70;36.20;;;;;;10423232;28;20242;-73
2022/05/21 06:13:10;;;;;;;2.27;2.07;;;19.70;36.20;;;;;;10423607;28;20221;-74
2022/05/21 06:18:16;;;;;;;3.97;2.30;;;19.80;36.30;;;;;;10426954;28;20643;-74
2022/05/21 06:23:20;;;;;;;2.57;2.23;;;19.90;35.90;;;;;;10425649;28;20225;-73
2022/05/21 06:28:25;;;;;;;2.53;2.33;;;20.00;35.60;;;;;;10426895;28;20237;-74
2022/05/21 06:33:31;;;;;;;2.37;2.10;;;19.90;35.40;;;;;;10433247;28;20229;-73
2022/05/21 06:38:35;;;;;;;2.93;2.63;;;19.90;35.70;;;;;;10435579;28;20295;-74
2022/05/21 06:43:40;;;;;;;2.37;2.23;;;19.90;35.70;;;;;;10433577;28;20233;-73
2022/05/21 06:48:43;;;;;;;2.40;2.30;;;20.00;35.80;;;;;;10432150;28;20229;-73
2022/05/21 06:53:47;;;;;;;2.13;1.93;;;20.10;35.20;;;;;;10435618;28;20228;-73
2022/05/21 06:58:51;;;;;;;2.53;2.30;;;20.20;34.70;;;;;;10435779;28;20255;-73
2022/05/21 07:03:55;;;;;;;2.67;2.30;;;20.20;34.70;;;;;;10434353;28;20236;-74
2022/05/21 07:08:59;;;;;;;2.40;2.10;;;20.10;34.40;;;;;;10431854;28;20237;-73
2022/05/21 07:14:04;;;;;;;2.47;2.27;;;20.20;34.80;;;;;;10427694;28;20221;-72
2022/05/21 07:19:12;;;;;;;2.50;2.30;;;20.20;34.60;;;;;;10434534;28;20619;-73
2022/05/21 07:24:15;;;;;;;3.43;2.23;;;20.30;33.90;;;;;;10431752;28;20225;-73
2022/05/21 07:29:20;;;;;;;2.53;2.30;;;20.40;33.90;;;;;;10433138;28;20232;-73
2022/05/21 07:34:23;;;;;;;2.27;1.97;;;20.50;33.90;;;;;;10434452;28;20229;-73
2022/05/21 07:39:26;;;;;;;2.50;2.30;;;20.60;33.90;;;;;;10433024;28;20249;-73
2022/05/21 07:44:31;;;;;;;2.50;2.30;;;20.70;33.80;;;;;;10432271;28;20232;-73
2022/05/21 07:49:34;;;;;;;2.53;2.30;;;20.80;33.30;;;;;;10432881;28;20685;-73
2022/05/21 07:54:37;;;;;;;2.57;2.40;;;20.80;33.70;;;;;;10424230;28;20229;-74
2022/05/21 07:59:42;;;;;;;3.03;2.47;;;20.90;33.60;;;;;;10431316;28;20228;-74
2022/05/21 08:04:47;;;;;;;2.27;2.17;;;20.90;33.60;;;;;;10425746;28;20237;-74
2022/05/21 08:09:50;;;;;;;3.50;3.20;;;21.00;33.60;;;;;;10428975;28;20224;-73
2022/05/21 08:14:54;;;;;;;2.10;2.00;;;21.10;33.20;;;;;;10429062;28;20229;-74
2022/05/21 08:19:58;;;;;;;2.40;2.30;;;21.20;33.00;;;;;;10429735;28;20217;-73
2022/05/21 08:30:24;;;;;;;2.73;2.30;;;21.40;33.60;;;;;;10430836;28;20227;-73
2022/05/21 08:35:28;;;;;;;3.07;2.77;;;21.60;32.90;;;;;;10430087;28;20800;-73
2022/05/21 08:40:40;;;;;;;2.60;2.50;;;21.80;32.80;;;;;;10428755;28;20222;-73
2022/05/21 08:46:15;;;;;;;2.47;2.27;;;21.90;31.70;;;;;;10432370;28;20868;-73
2022/05/21 08:51:21;;;;;;;2.63;2.37;;;22.00;31.30;;;;;;10425270;28;20221;-73
2022/05/21 08:56:25;;;;;;;2.10;2.00;;;22.10;32.10;;;;;;10428758;28;20235;-73
2022/05/21 09:01:30;;;;;;;2.10;2.00;;;22.20;31.90;;;;;;10428247;28;20235;-73
2022/05/21 09:06:38;;;;;;;2.10;2.00;;;22.50;31.60;;;;;;10431307;28;20251;-73
2022/05/21 09:11:47;;;;;;;1.80;1.70;;;22.60;30.00;;;;;;10428244;28;20224;-73
2022/05/21 09:16:57;;;;;;;3.53;1.90;;;22.70;30.10;;;;;;10430580;28;20232;-73
2022/05/21 09:22:04;;;;;;;2.30;1.70;;;22.80;30.00;;;;;;10432914;28;21124;-74
2022/05/21 09:27:23;;;;;;;2.47;2.27;;;22.80;30.30;;;;;;10426746;28;20236;-73
2022/05/21 09:32:36;;;;;;;2.70;1.87;;;23.00;30.10;;;;;;10429803;28;20243;-74
2022/05/21 09:37:40;;;;;;;1.93;1.83;;;23.00;29.90;;;;;;10430310;28;20667;-74
2022/05/21 09:48:23;;;;;;;1.70;1.60;;;23.10;29.70;;;;;;10427262;28;20939;-74
2022/05/21 09:53:29;;;;;;;1.87;1.77;;;23.20;29.00;;;;;;10427911;28;20611;-74
2022/05/21 09:58:36;;;;;;;1.73;1.63;;;23.30;29.10;;;;;;10423649;28;20519;-75
2022/05/21 10:03:45;;;;;;;1.97;1.87;;;23.40;29.30;;;;;;10431396;28;20670;-75
2022/05/21 10:14:20;;;;;;;1.43;1.40;;;23.80;29.90;;;;;;10438240;28;20224;-74
2022/05/21 10:19:33;;;;;;;1.77;1.20;;;23.90;29.00;;;;;;10437839;28;20232;-74
2022/05/21 10:24:47;;;;;;;1.50;1.40;;;24.10;28.10;;;;;;10438988;28;20232;-74
2022/05/21 10:30:15;;;;;;;1.30;1.20;;;24.30;27.70;;;;;;10436066;28;20225;-74
2022/05/21 10:35:32;;;;;;;1.13;1.13;;;24.30;27.70;;;;;;10432339;28;20229;-74
2022/05/21 10:40:44;;;;;;;1.40;1.30;;;24.30;26.80;;;;;;10433910;28;20235;-74
2022/05/21 10:45:59;;;;;;;1.73;1.20;;;24.30;25.60;;;;;;10435042;28;20233;-75
2022/05/21 10:51:10;;;;;;;1.43;1.07;;;24.30;27.50;;;;;;10438601;28;20221;-74
2022/05/21 10:56:36;;;;;;;1.13;1.13;;;24.40;25.30;;;;;;10433752;28;20765;-75
2022/05/21 11:01:50;;;;;;;1.63;1.50;;;24.50;25.70;;;;;;10425238;28;20724;-70
2022/05/21 11:07:15;;;;;;;1.10;1.10;;;24.50;26.30;;;;;;10431212;28;20649;-70
2022/05/21 11:12:22;;;;;;;1.47;1.30;;;24.40;27.00;;;;;;10434852;28;20681;-69
2022/05/21 11:17:34;;;;;;;1.50;1.40;;;24.50;26.40;;;;;;10433044;28;20236;-70
2022/05/21 11:22:42;;;;;;;1.70;1.10;;;24.60;25.80;;;;;;10433207;28;20241;-70
2022/05/21 11:27:53;;;;;;;1.13;1.00;;;24.70;25.10;;;;;;10427165;28;20237;-69
2022/05/21 11:38:25;;;;;;;0.90;0.90;;;24.80;24.90;;;;;;10429205;28;20228;-70
2022/05/21 11:49:45;;;;;;;1.20;1.10;;;24.90;25.00;;;;;;10430481;28;20228;-70
2022/05/21 11:55:04;;;;;;;1.67;1.20;;;25.00;25.90;;;;;;10427376;28;20794;-70
2022/05/21 12:00:11;;;;;;;1.00;1.00;;;25.10;26.40;;;;;;10430527;28;20427;-70
2022/05/21 12:05:51;;;;;;;1.63;0.90;;;25.20;26.70;;;;;;10430623;28;20232;-70
2022/05/21 12:10:58;;;;;;;1.10;1.00;;;25.30;26.10;;;;;;10424690;28;20221;-71
2022/05/21 12:16:03;;;;;;;0.80;0.80;;;25.40;25.30;;;;;;10428393;28;20229;-72
2022/05/21 12:21:09;;;;;;;1.10;1.00;;;25.50;25.50;;;;;;10425230;28;20236;-70
2022/05/21 12:26:22;;;;;;;1.30;1.17;;;25.60;25.20;;;;;;10423802;28;20239;-70
2022/05/21 12:31:27;;;;;;;2.07;1.10;;;25.60;24.60;;;;;;10430772;28;20239;-70
2022/05/21 12:36:47;;;;;;;1.00;1.00;;;25.70;25.30;;;;;;10429346;28;20527;-70
2022/05/21 12:42:11;;;;;;;0.87;0.87;;;25.70;24.10;;;;;;10428743;28;20229;-70
2022/05/21 12:47:25;;;;;;;1.00;1.00;;;25.80;25.00;;;;;;10430690;28;20220;-69
2022/05/21 12:52:30;;;;;;;0.97;0.90;;;25.90;24.10;;;;;;10427830;28;20239;-69
2022/05/21 12:57:35;;;;;;;1.00;0.90;;;26.00;24.60;;;;;;10430327;28;20725;-70
2022/05/21 13:02:41;;;;;;;1.00;0.90;;;26.00;24.40;;;;;;10426728;28;20228;-69
2022/05/21 13:07:45;;;;;;;1.07;1.07;;;26.10;24.70;;;;;;10423449;28;20236;-70
2022/05/21 13:12:53;;;;;;;0.97;0.97;;;26.20;24.40;;;;;;10429067;28;20240;-70
2022/05/21 13:18:12;;;;;;;1.13;0.87;;;26.20;24.10;;;;;;10430250;28;20233;-70
2022/05/21 13:23:44;;;;;;;1.90;0.90;;;26.30;23.30;;;;;;10425696;28;20233;-71
2022/05/21 13:28:48;;;;;;;1.00;0.90;;;26.30;22.60;;;;;;10426363;28;20231;-70
2022/05/21 13:33:53;;;;;;;0.80;0.63;;;26.20;22.80;;;;;;10428199;28;20236;-70
2022/05/21 13:38:57;;;;;;;1.10;0.70;;;26.10;23.20;;;;;;10430826;28;20239;-75
2022/05/21 13:44:13;;;;;;;0.90;0.90;;;26.10;23.30;;;;;;10427710;28;20223;-74
2022/05/21 13:49:23;;;;;;;1.50;1.00;;;26.00;22.30;;;;;;10424593;28;20241;-74
2022/05/21 13:54:29;;;;;;;2.77;0.90;;;26.00;22.20;;;;;;10421957;28;20259;-74
2022/05/21 13:59:34;;;;;;;0.87;0.80;;;26.00;21.80;;;;;;10426724;28;20587;-74
2022/05/21 14:04:39;;;;;;;0.80;0.80;;;26.00;22.30;;;;;;10431520;28;20229;-74
2022/05/21 14:09:46;;;;;;;1.43;1.00;;;26.00;22.60;;;;;;10429029;28;20221;-73
2022/05/21 14:14:51;;;;;;;1.47;0.80;;;26.10;22.40;;;;;;10428011;28;20224;-73
2022/05/21 14:20:23;;;;;;;0.80;0.80;;;26.20;21.60;;;;;;10427577;28;20228;-72
2022/05/21 14:25:33;;;;;;;2.40;0.90;;;26.20;21.30;;;;;;10407243;28;20240;-72
2022/05/21 14:30:40;;;;;;;0.70;0.70;;;26.20;20.90;;;;;;10427268;28;20233;-73
2022/05/21 14:35:44;;;;;;;1.33;0.70;;;26.20;20.60;;;;;;10426673;28;20224;-72
2022/05/21 14:40:51;;;;;;;0.70;0.70;;;26.20;21.10;;;;;;10426247;28;20736;-72
2022/05/21 14:45:55;;;;;;;0.93;0.70;;;26.10;20.50;;;;;;10427828;28;20224;-72
2022/05/21 14:56:24;;;;;;;0.70;0.70;;;25.90;21.10;;;;;;10436143;28;20232;-73
2022/05/21 15:01:29;;;;;;;0.77;0.77;;;25.90;20.30;;;;;;10438688;28;20232;-72
2022/05/21 15:06:37;;;;;;;1.37;0.83;;;25.90;20.80;;;;;;10433130;28;20248;-73
2022/05/21 15:11:48;;;;;;;1.00;1.00;;;26.00;20.70;;;;;;10435794;28;20638;-72
2022/05/21 15:16:52;;;;;;;0.80;0.80;;;26.00;20.30;;;;;;10434749;28;20232;-72
2022/05/21 15:21:58;;;;;;;2.40;0.90;;;26.00;20.30;;;;;;10426994;28;20258;-72
2022/05/21 15:27:01;;;;;;;0.70;0.70;;;26.00;20.00;;;;;;10434654;28;20244;-73
2022/05/21 15:32:08;;;;;;;0.70;0.70;;;25.90;20.40;;;;;;10432324;28;20232;-73
2022/05/21 15:37:11;;;;;;;0.90;0.90;;;25.80;19.90;;;;;;10426260;28;20233;-73
2022/05/21 15:42:16;;;;;;;0.80;0.80;;;25.80;20.80;;;;;;10431101;28;20240;-72
2022/05/21 15:47:20;;;;;;;0.90;0.90;;;25.80;20.30;;;;;;10432310;28;20237;-72
2022/05/21 15:52:27;;;;;;;0.80;0.80;;;25.90;20.10;;;;;;10433025;28;20236;-74
2022/05/21 15:57:30;;;;;;;1.70;1.30;;;25.90;19.70;;;;;;10433229;28;20759;-73
2022/05/21 16:02:36;;;;;;;0.80;0.80;;;25.90;20.50;;;;;;10430038;28;20739;-74
2022/05/21 16:07:41;;;;;;;1.93;0.97;;;25.90;19.90;;;;;;10427574;28;20217;-74
2022/05/21 16:12:45;;;;;;;0.90;0.90;;;25.80;20.00;;;;;;10433282;28;20224;-72
2022/05/21 16:17:50;;;;;;;1.67;1.37;;;25.80;19.90;;;;;;10431201;28;20595;-74
2022/05/21 16:22:53;;;;;;;2.60;1.20;;;25.70;19.80;;;;;;10431581;28;20221;-74
2022/05/21 16:28:01;;;;;;;4.30;2.27;;;25.70;20.30;;;;;;10431600;28;20286;-70
2022/05/21 16:33:06;;;;;;;3.13;1.30;;;25.70;19.90;;;;;;10428150;28;20217;-70
2022/05/21 16:38:09;;;;;;;0.80;0.80;;;25.70;19.60;;;;;;10425111;28;20331;-70
2022/05/21 16:43:12;;;;;;;2.03;0.90;;;25.60;19.80;;;;;;10432574;28;20940;-70
2022/05/21 16:48:19;;;;;;;5.40;4.77;;;25.60;19.60;;;;;;10431258;28;20570;-70
2022/05/21 16:53:22;;;;;;;4.23;3.87;;;25.60;19.10;;;;;;10427749;28;20283;-70
2022/05/21 16:58:25;;;;;;;2.20;2.00;;;25.70;19.90;;;;;;10429339;28;20316;-70
2022/05/21 17:03:32;;;;;;;2.00;1.80;;;25.70;19.40;;;;;;10429601;28;20785;-69
2022/05/21 17:08:35;;;;;;;3.10;2.80;;;25.70;19.60;;;;;;10430778;28;20225;-70
2022/05/21 17:13:38;;;;;;;1.40;1.30;;;25.70;19.80;;;;;;10430118;28;20232;-70
2022/05/21 17:18:43;;;;;;;1.67;1.50;;;25.60;20.10;;;;;;10430285;28;20217;-70
2022/05/21 17:23:47;;;;;;;1.20;1.20;;;25.60;20.40;;;;;;10427236;28;21144;-70
2022/05/21 17:34:12;;;;;;;1.77;1.20;;;25.60;20.90;;;;;;10427890;28;20990;-70
2022/05/21 17:39:15;;;;;;;1.30;1.20;;;25.60;20.90;;;;;;10429003;28;20236;-70
2022/05/21 17:44:19;;;;;;;1.80;1.10;;;25.60;20.90;;;;;;10432672;28;20225;-70
2022/05/21 17:49:24;;;;;;;2.40;1.30;;;25.50;20.80;;;;;;10429733;28;20272;-70
2022/05/21 17:54:27;;;;;;;1.33;1.23;;;25.50;20.80;;;;;;10429937;28;20226;-70
2022/05/21 17:59:30;;;;;;;1.27;1.20;;;25.40;20.90;;;;;;10429591;28;20255;-70
2022/05/21 18:04:35;;;;;;;1.33;1.20;;;25.40;20.80;;;;;;10431147;28;20228;-70
2022/05/21 18:09:38;;;;;;;1.63;1.23;;;25.30;20.70;;;;;;10425189;28;20232;-70
2022/05/21 18:14:42;;;;;;;1.10;1.10;;;25.20;20.90;;;;;;10429345;28;20225;-70
2022/05/21 18:19:46;;;;;;;1.10;1.10;;;25.10;21.10;;;;;;10424931;28;20225;-69
2022/05/21 18:24:49;;;;;;;1.50;1.40;;;25.00;21.20;;;;;;10430774;28;20225;-69
2022/05/21 18:29:52;;;;;;;1.40;1.30;;;24.90;21.30;;;;;;10433828;28;20864;-69
2022/05/21 18:34:57;;;;;;;1.67;1.50;;;24.90;21.30;;;;;;10435616;28;20243;-70
2022/05/21 18:40:00;;;;;;;2.70;1.10;;;24.80;21.50;;;;;;10434887;28;20222;-69
2022/05/21 18:45:06;;;;;;;2.73;1.50;;;24.70;21.70;;;;;;10436629;28;20222;-70
2022/05/21 18:50:24;;;;;;;1.97;1.77;;;24.60;21.50;;;;;;10436131;28;20982;-70
2022/05/21 18:55:27;;;;;;;1.73;1.63;;;24.50;21.60;;;;;;10434389;28;20617;-70
2022/05/21 19:00:30;;;;;;;1.80;1.30;;;24.30;21.50;;;;;;10438697;28;20228;-70
2022/05/21 19:05:38;;;;;;;1.60;1.50;;;24.30;21.70;;;;;;10433028;28;20256;-69
2022/05/21 19:10:42;;;;;;;3.80;1.50;;;24.10;21.80;;;;;;10435906;28;20228;-69
2022/05/21 19:15:45;;;;;;;1.30;1.30;;;24.10;21.70;;;;;;10432809;28;20240;-69
2022/05/21 19:20:51;;;;;;;1.40;1.20;;;23.90;21.60;;;;;;10433851;28;20221;-69
2022/05/21 19:25:54;;;;;;;2.40;1.60;;;23.80;21.70;;;;;;10432777;28;20683;-70
2022/05/21 19:30:57;;;;;;;1.43;1.33;;;23.80;21.80;;;;;;10431837;28;20229;-70
2022/05/21 19:36:02;;;;;;;1.10;1.10;;;23.70;21.80;;;;;;10429025;28;20799;-70
2022/05/21 19:41:15;;;;;;;1.50;1.40;;;23.60;21.90;;;;;;10426427;28;20232;-70
2022/05/21 19:46:20;;;;;;;2.03;1.40;;;23.50;21.70;;;;;;10427154;28;20613;-73
2022/05/21 19:51:25;;;;;;;1.60;1.50;;;23.30;21.80;;;;;;10428579;28;20240;-73
2022/05/21 19:56:28;;;;;;;2.10;1.50;;;23.20;21.80;;;;;;10427700;28;20236;-73
2022/05/21 20:01:32;;;;;;;1.37;1.27;;;22.90;21.80;;;;;;10426332;28;20243;-73
2022/05/21 20:06:36;;;;;;;2.63;1.40;;;22.80;21.80;;;;;;10424914;28;20224;-73
2022/05/21 20:11:40;;;;;;;1.60;1.50;;;22.70;22.10;;;;;;10425136;28;21008;-73
2022/05/21 20:16:44;;;;;;;1.33;1.23;;;22.50;22.00;;;;;;10383503;28;1272793;-73
2022/05/21 20:21:59;;;;;;;1.80;1.60;;;22.40;22.30;;;;;;10425445;28;20314;-73
2022/05/21 20:27:02;;;;;;;1.60;1.50;;;22.40;22.60;;;;;;10429220;28;20234;-72
2022/05/21 20:32:07;;;;;;;1.20;1.10;;;22.30;22.50;;;;;;10429074;28;20251;-73
2022/05/21 20:37:13;;;;;;;1.77;1.50;;;22.20;22.70;;;;;;10425408;28;20242;-73
2022/05/21 20:42:17;;;;;;;1.33;1.23;;;22.20;22.80;;;;;;10432149;28;20693;-73
2022/05/21 20:47:20;;;;;;;1.40;1.30;;;22.10;22.80;;;;;;10433711;28;20237;-73
2022/05/21 20:52:25;;;;;;;1.60;1.50;;;22.00;23.00;;;;;;10428128;28;20725;-73
2022/05/21 20:57:28;;;;;;;1.60;1.50;;;21.90;23.40;;;;;;10432617;28;20229;-73
2022/05/21 21:02:31;;;;;;;1.60;1.50;;;21.90;23.40;;;;;;10431223;28;20600;-73
2022/05/21 21:07:36;;;;;;;3.63;1.90;;;21.80;23.30;;;;;;10429996;28;20611;-73
2022/05/21 21:12:40;;;;;;;4.17;3.13;;;21.70;23.50;;;;;;10431360;28;20225;-73
2022/05/21 21:17:44;;;;;;;3.43;2.80;;;21.70;23.50;;;;;;10431852;28;20608;-73
2022/05/21 21:22:48;;;;;;;2.03;1.93;;;21.50;23.40;;;;;;10433792;28;20232;-73
2022/05/21 21:27:51;;;;;;;2.13;1.93;;;21.40;23.90;;;;;;10431360;28;20233;-73
2022/05/21 21:32:55;;;;;;;1.90;1.80;;;21.30;23.80;;;;;;10435369;28;20229;-73
2022/05/21 21:37:59;;;;;;;2.37;1.60;;;21.20;23.70;;;;;;10430514;28;20236;-73
2022/05/21 21:43:02;;;;;;;2.43;1.87;;;21.10;24.20;;;;;;10430306;28;20222;-73
2022/05/21 21:48:06;;;;;;;5.33;4.83;;;21.00;24.20;;;;;;10433305;28;20241;-73
2022/05/21 21:53:11;;;;;;;2.73;2.53;;;20.90;24.40;;;;;;10432973;28;20236;-73
2022/05/21 22:03:37;;;;;;;1.80;1.70;;;20.70;24.40;;;;;;10429664;28;20360;-73
2022/05/21 22:08:42;;;;;;;2.20;2.00;;;20.60;24.50;;;;;;10423122;28;20244;-73
2022/05/21 22:13:45;;;;;;;2.40;2.20;;;20.40;24.70;;;;;;10431976;28;20232;-73
2022/05/21 22:18:48;;;;;;;3.07;2.03;;;20.40;24.70;;;;;;10430441;28;20229;-73
2022/05/21 22:23:53;;;;;;;1.70;1.60;;;20.30;24.80;;;;;;10430188;28;20233;-73
2022/05/21 22:28:56;;;;;;;1.80;1.70;;;20.10;25.10;;;;;;10429656;28;20800;-73
2022/05/21 22:34:00;;;;;;;1.93;1.47;;;20.10;25.30;;;;;;10430083;28;20235;-73
2022/05/21 22:39:05;;;;;;;1.73;1.63;;;20.00;25.30;;;;;;10432068;28;20592;-73
2022/05/21 22:44:08;;;;;;;2.30;2.00;;;19.90;25.30;;;;;;10431911;28;20231;-73
2022/05/21 22:49:12;;;;;;;2.20;2.10;;;19.90;25.30;;;;;;10430803;28;20221;-73
2022/05/21 22:54:16;;;;;;;2.27;2.07;;;19.90;25.30;;;;;;10427560;28;20229;-73
2022/05/21 22:59:20;;;;;;;2.87;2.57;;;19.80;25.20;;;;;;10431335;28;20685;-73
2022/05/21 23:04:24;;;;;;;2.70;2.50;;;19.70;25.10;;;;;;10425576;28;20628;-73
2022/05/21 23:09:28;;;;;;;2.53;2.33;;;19.60;25.00;;;;;;10423964;28;20224;-73
2022/05/21 23:19:54;;;;;;;2.83;2.63;;;19.30;25.50;;;;;;10436209;28;20256;-74
2022/05/21 23:25:00;;;;;;;2.50;2.30;;;19.20;25.50;;;;;;10437107;28;20228;-74
2022/05/21 23:30:04;;;;;;;2.90;2.60;;;18.90;26.00;;;;;;10436708;28;20221;-73
2022/05/21 23:35:09;;;;;;;3.03;2.40;;;18.70;25.80;;;;;;10433075;28;20240;-73
2022/05/21 23:40:14;;;;;;;3.87;2.20;;;18.40;26.20;;;;;;10434899;28;20224;-73
2022/05/21 23:45:17;;;;;;;2.20;2.10;;;18.20;26.60;;;;;;10438012;28;20221;-73
2022/05/21 23:50:21;;;;;;;2.47;2.20;;;18.00;26.60;;;;;;10439223;28;20240;-73
2022/05/21 23:55:26;;;;;;;2.10;2.00;;;18.00;27.00;;;;;;10433820;28;20225;-73
